EDXK weather

Leck Airport
Leck, Schleswig-Holstein, Germany

Public forecast

Using degrees Celsius for public forecast. Weather courtesy of forecast.io.

METAR (pilot weather report)

Closest report is Westerland Sylt Airport, 22.7 nm (42.0 km) WNW. Retrieved 2019/08/24 10:20 UTC (11 minutes ago):

EDXW 241020Z 09008KT CAVOK 23/18 Q1025

TAF (pilot weather forecast)

Forecast is more than 12 hours old.

Closest forecast is Schleswig Air Base, 27.7 nm (51.3 km) SE. Retrieved 2019/01/28 18:31 UTC (7 months ago):

TAF ETNS 281725Z 2818/2909 33010G20KT 5000 BR SCT005 SCT018 BKN040 TEMPO 2818/2819 34010KT 1600 SN BKN003 BECMG 2818/2820 33010G20KT 9999 NSW FEW010 BKN025 TEMPO 2820/2824 34010G20KT 5000 BR BKN015 BY ETGL